createdAt,value
2022-09-25T00:00:48.610Z,10.52
2022-09-25T00:03:16.726Z,10.63
2022-09-25T00:05:45.682Z,18.90
2022-09-25T00:08:13.300Z,8.88
2022-09-25T00:10:48.872Z,9.38
2022-09-25T00:13:22.227Z,14.18
2022-09-25T00:15:51.606Z,11.65
2022-09-25T00:18:39.349Z,12.68
2022-09-25T00:21:06.919Z,11.02
2022-09-25T00:23:35.595Z,10.90
2022-09-25T00:26:05.870Z,13.40
2022-09-25T00:28:32.319Z,13.02
2022-09-25T00:30:58.792Z,10.38
2022-09-25T00:33:25.262Z,11.00
2022-09-25T00:35:51.695Z,9.20
2022-09-25T00:38:18.149Z,11.02
2022-09-25T00:40:44.744Z,10.20
2022-09-25T00:43:37.618Z,12.07
2022-09-25T00:46:10.275Z,16.27
2022-09-25T00:48:41.288Z,16.00
2022-09-25T00:51:07.774Z,9.90
2022-09-25T00:53:40.772Z,12.40
2022-09-25T00:58:37.611Z,8.80
2022-09-25T01:01:04.591Z,10.60
2022-09-25T01:03:31.141Z,10.82
2022-09-25T01:06:00.253Z,11.38
2022-09-25T01:08:30.517Z,9.75
2022-09-25T01:10:57.524Z,12.35
2022-09-25T01:13:24.707Z,9.68
2022-09-25T01:16:09.569Z,12.35
2022-09-25T01:18:52.023Z,9.50
2022-09-25T01:21:47.741Z,15.43
2022-09-25T01:24:24.236Z,12.70
2022-09-25T01:27:17.895Z,10.65
2022-09-25T01:29:54.919Z,12.27
2022-09-25T01:32:32.384Z,10.52
2022-09-25T01:35:06.844Z,14.40
2022-09-25T01:37:48.109Z,12.98
2022-09-25T01:40:27.317Z,11.40
2022-09-25T01:43:39.022Z,15.18
2022-09-25T01:46:15.685Z,13.45
2022-09-25T01:48:47.115Z,12.00
2022-09-25T01:51:28.808Z,11.43
2022-09-25T01:53:59.710Z,12.73
2022-09-25T01:56:34.846Z,10.35
2022-09-25T01:59:16.923Z,10.48
2022-09-25T02:01:46.066Z,10.50
2022-09-25T02:04:22.598Z,9.32
2022-09-25T02:06:51.685Z,12.10
2022-09-25T02:09:56.279Z,9.18
2022-09-25T02:12:37.372Z,11.13
2022-09-25T02:15:24.669Z,10.57
2022-09-25T02:18:16.327Z,11.45
2022-09-25T02:20:46.226Z,12.52
2022-09-25T02:23:45.055Z,10.10
2022-09-25T02:26:17.803Z,13.25
2022-09-25T02:28:44.280Z,11.32
2022-09-25T02:31:13.762Z,28.58
2022-09-25T02:33:40.646Z,15.30
2022-09-25T02:36:18.658Z,14.77
2022-09-25T02:38:46.461Z,10.45
2022-09-25T02:41:29.416Z,9.48
2022-09-25T02:44:11.116Z,10.07
2022-09-25T02:47:06.554Z,10.32
2022-09-25T02:49:47.893Z,11.68
2022-09-25T02:52:23.578Z,12.95
2022-09-25T02:54:58.528Z,10.20
2022-09-25T02:57:37.418Z,15.07
2022-09-25T03:00:09.564Z,18.17
2022-09-25T03:02:40.620Z,10.45
2022-09-25T03:05:11.361Z,8.48
2022-09-25T03:07:57.256Z,17.17
2022-09-25T03:10:24.835Z,9.95
2022-09-25T03:12:53.556Z,8.85
2022-09-25T03:15:23.724Z,2.47
2022-09-25T03:17:52.156Z,12.57
2022-09-25T03:20:18.696Z,11.95
2022-09-25T03:22:45.186Z,11.23
2022-09-25T03:25:11.604Z,12.27
2022-09-25T03:27:38.074Z,10.07
2022-09-25T03:30:05.795Z,10.80
2022-09-25T03:32:34.665Z,9.18
2022-09-25T03:35:03.259Z,13.98
2022-09-25T03:37:32.354Z,9.93
2022-09-25T03:40:01.429Z,10.75
2022-09-25T03:42:28.293Z,11.93
2022-09-25T03:44:54.718Z,12.70
2022-09-25T03:47:21.159Z,29.25
2022-09-25T03:49:49.691Z,17.55
2022-09-25T03:52:16.162Z,8.82
2022-09-25T03:54:42.594Z,12.98
2022-09-25T03:57:09.109Z,24.30
2022-09-25T03:59:35.553Z,11.48
2022-09-25T04:02:02.326Z,21.27
2022-09-25T04:04:29.989Z,14.77
2022-09-25T04:06:56.888Z,14.77
2022-09-25T04:09:23.441Z,11.20
2022-09-25T04:11:50.061Z,14.15
2022-09-25T04:14:16.472Z,9.52
2022-09-25T04:16:43.303Z,10.55
2022-09-25T04:19:12.282Z,12.00
2022-09-25T04:21:38.759Z,14.65
2022-09-25T04:24:26.273Z,28.67
2022-09-25T04:26:53.640Z,11.25
2022-09-25T04:29:21.146Z,12.25
2022-09-25T04:32:07.555Z,13.82
2022-09-25T04:34:34.934Z,13.18
2022-09-25T04:37:01.798Z,11.75
2022-09-25T04:39:28.247Z,10.20
2022-09-25T04:41:55.518Z,20.92
2022-09-25T04:44:21.961Z,14.13
2022-09-25T04:46:48.468Z,12.73
2022-09-25T04:49:14.979Z,14.55
2022-09-25T04:51:41.405Z,17.15
2022-09-25T04:54:10.290Z,14.23
2022-09-25T04:56:39.022Z,11.95
2022-09-25T04:59:05.636Z,19.15
2022-09-25T05:01:32.141Z,11.20
2022-09-25T05:03:58.985Z,14.35
2022-09-25T05:06:26.909Z,15.95
2022-09-25T05:08:53.325Z,15.98
2022-09-25T05:11:19.778Z,11.88
2022-09-25T05:13:51.140Z,17.00
2022-09-25T05:16:17.716Z,18.80
2022-09-25T05:18:44.273Z,13.75
2022-09-25T05:21:13.007Z,10.73
2022-09-25T05:23:42.415Z,20.45
2022-09-25T05:26:13.712Z,10.95
2022-09-25T05:28:42.564Z,11.00
2022-09-25T05:31:11.301Z,14.15
2022-09-25T05:33:37.793Z,18.33
2022-09-25T05:36:06.597Z,15.43
2022-09-25T05:38:37.532Z,14.02
2022-09-25T05:41:08.384Z,16.45
2022-09-25T05:43:41.273Z,15.70
2022-09-25T05:46:07.812Z,14.55
2022-09-25T05:48:37.096Z,7.68
2022-09-25T05:51:04.175Z,11.30
2022-09-25T05:53:30.906Z,14.05
2022-09-25T05:56:01.774Z,12.85
2022-09-25T05:58:33.637Z,11.27
2022-09-25T06:01:05.647Z,13.57
2022-09-25T06:03:32.425Z,12.15
2022-09-25T06:06:00.058Z,17.20
2022-09-25T06:08:27.383Z,13.32
2022-09-25T06:10:57.178Z,17.23
2022-09-25T06:13:26.592Z,11.57
2022-09-25T06:15:53.353Z,15.43
2022-09-25T06:18:22.122Z,17.58
2022-09-25T06:20:49.632Z,16.35
2022-09-25T06:23:17.106Z,15.93
2022-09-25T06:25:43.884Z,16.42
2022-09-25T06:28:13.717Z,14.27
2022-09-25T06:30:42.647Z,16.97
2022-09-25T06:33:16.384Z,17.90
2022-09-25T06:35:43.952Z,17.02
2022-09-25T06:38:11.476Z,10.95
2022-09-25T06:40:40.945Z,16.90
2022-09-25T06:43:15.870Z,12.35
2022-09-25T06:45:47.793Z,21.20
2022-09-25T06:48:16.234Z,18.38
2022-09-25T06:50:44.816Z,11.75
2022-09-25T06:53:12.330Z,12.80
2022-09-25T06:55:38.858Z,15.93
2022-09-25T06:58:09.455Z,12.27
2022-09-25T07:00:35.967Z,14.00
2022-09-25T07:03:23.151Z,14.52
2022-09-25T07:05:54.684Z,17.90
2022-09-25T07:08:24.935Z,17.15
2022-09-25T07:10:53.842Z,16.50
2022-09-25T07:13:25.921Z,10.77
2022-09-25T07:15:53.107Z,16.33
2022-09-25T07:18:21.207Z,18.30
2022-09-25T07:20:50.919Z,15.80
2022-09-25T07:23:19.262Z,13.38
2022-09-25T07:25:46.849Z,7.70
2022-09-25T07:28:14.559Z,10.50
2022-09-25T07:30:42.069Z,9.68
2022-09-25T07:33:15.357Z,7.32
2022-09-25T07:35:44.148Z,16.58
2022-09-25T07:38:10.598Z,18.77
2022-09-25T07:40:37.145Z,14.07
2022-09-25T07:43:08.208Z,16.75
2022-09-25T07:45:34.683Z,11.02
2022-09-25T07:48:03.423Z,17.10
2022-09-25T07:50:34.189Z,13.75
2022-09-25T07:53:00.689Z,10.60
2022-09-25T07:55:30.003Z,4.18
2022-09-25T07:57:57.435Z,17.85
2022-09-25T08:00:26.423Z,16.50
2022-09-25T08:03:02.121Z,15.35
2022-09-25T08:05:34.214Z,9.05
2022-09-25T08:08:01.161Z,17.13
2022-09-25T08:10:27.622Z,12.25
2022-09-25T08:12:56.633Z,15.55
2022-09-25T08:15:25.802Z,11.15
2022-09-25T08:17:52.955Z,6.55
2022-09-25T08:20:20.001Z,13.23
2022-09-25T08:22:49.049Z,19.48
2022-09-25T08:25:15.593Z,12.40
2022-09-25T08:27:43.243Z,10.65
2022-09-25T08:30:14.067Z,11.82
2022-09-25T08:32:47.059Z,13.50
2022-09-25T08:35:18.472Z,12.15
2022-09-25T08:38:17.059Z,9.55
2022-09-25T08:40:54.960Z,16.58
2022-09-25T08:43:24.581Z,14.50
2022-09-25T08:46:11.516Z,12.98
2022-09-25T08:49:02.294Z,13.35
2022-09-25T08:51:43.990Z,11.35
2022-09-25T08:54:18.875Z,11.10
2022-09-25T08:56:54.601Z,10.52
2022-09-25T08:59:34.574Z,11.25
2022-09-25T09:02:10.395Z,10.45
2022-09-25T09:04:44.778Z,12.45
2022-09-25T09:07:29.960Z,18.20
2022-09-25T09:10:19.220Z,13.63
2022-09-25T09:12:56.434Z,11.70
2022-09-25T09:15:34.332Z,15.35
2022-09-25T09:18:14.908Z,11.30
2022-09-25T09:20:53.651Z,9.10
2022-09-25T09:23:27.372Z,10.07
2022-09-25T09:26:01.984Z,16.15
2022-09-25T09:29:03.422Z,12.55
2022-09-25T09:31:49.952Z,13.32
2022-09-25T09:34:18.511Z,15.63
2022-09-25T09:37:15.880Z,9.73
2022-09-25T09:40:17.715Z,11.27
2022-09-25T09:43:15.466Z,10.57
2022-09-25T09:45:48.459Z,8.13
2022-09-25T09:48:21.046Z,9.85
2022-09-25T09:50:54.309Z,11.23
2022-09-25T09:53:30.887Z,7.82
2022-09-25T09:56:14.566Z,8.30
2022-09-25T09:59:25.372Z,7.68
2022-09-25T10:02:20.391Z,6.80
2022-09-25T10:04:53.010Z,12.00
2022-09-25T10:07:26.941Z,9.30
2022-09-25T10:09:55.062Z,4.80
2022-09-25T10:12:36.022Z,5.97
2022-09-25T10:15:14.167Z,9.10
2022-09-25T10:17:45.218Z,5.43
2022-09-25T10:20:21.421Z,3.78
2022-09-25T10:22:53.518Z,5.60
2022-09-25T10:25:40.382Z,6.72
2022-09-25T10:28:46.684Z,5.45
2022-09-25T10:31:16.232Z,6.47
2022-09-25T10:33:42.840Z,8.63
2022-09-25T10:36:11.810Z,4.10
2022-09-25T10:38:53.514Z,6.80
2022-09-25T10:41:25.879Z,5.28
2022-09-25T10:43:54.829Z,4.15
2022-09-25T10:46:54.311Z,6.80
2022-09-25T10:49:40.869Z,4.22
2022-09-25T10:52:14.757Z,3.38
2022-09-25T10:54:45.115Z,3.72
2022-09-25T10:57:22.605Z,5.80
2022-09-25T10:59:54.675Z,9.32
2022-09-25T11:02:48.353Z,14.82
2022-09-25T11:05:19.235Z,4.25
2022-09-25T11:07:56.470Z,6.95
2022-09-25T11:10:27.463Z,1.80
2022-09-25T11:13:00.550Z,2.63
2022-09-25T11:15:29.560Z,3.33
2022-09-25T11:17:57.228Z,4.60
2022-09-25T11:20:34.708Z,4.28
2022-09-25T11:23:45.751Z,5.15
2022-09-25T11:26:20.783Z,2.72
2022-09-25T11:29:08.643Z,3.75
2022-09-25T11:31:38.209Z,3.35
2022-09-25T11:34:35.511Z,28.58
2022-09-25T11:37:26.197Z,7.78
2022-09-25T11:43:00.467Z,6.28
2022-09-25T11:45:47.429Z,5.55
2022-09-25T11:48:37.230Z,4.13
2022-09-25T11:51:29.015Z,8.82
2022-09-25T11:54:33.348Z,4.80
2022-09-25T11:57:06.619Z,8.15
2022-09-25T11:59:55.515Z,5.57
2022-09-25T12:02:40.932Z,5.88
2022-09-25T12:05:32.440Z,5.03
2022-09-25T12:08:01.321Z,4.85
2022-09-25T12:10:43.960Z,7.05
2022-09-25T12:13:41.128Z,2.58
2022-09-25T12:16:22.976Z,3.53
2022-09-25T12:19:04.782Z,5.93
2022-09-25T12:21:47.828Z,5.75
2022-09-25T12:24:48.531Z,10.35
2022-09-25T12:27:30.266Z,4.43
2022-09-25T12:30:17.557Z,3.17
2022-09-25T12:32:50.032Z,4.60
2022-09-25T12:35:40.394Z,3.22
2022-09-25T12:38:18.694Z,2.08
2022-09-25T12:40:51.157Z,1.83
2022-09-25T12:43:27.982Z,2.30
2022-09-25T12:46:00.764Z,3.47
2022-09-25T12:48:37.530Z,6.60
2022-09-25T12:51:14.969Z,5.07
2022-09-25T12:54:07.023Z,2.85
2022-09-25T12:56:43.581Z,1.52
2022-09-25T12:59:13.876Z,3.20
2022-09-25T13:01:59.036Z,3.17
2022-09-25T13:04:36.416Z,4.25
2022-09-25T13:07:40.094Z,1.75
2022-09-25T13:10:28.460Z,3.15
2022-09-25T13:12:58.722Z,2.30
2022-09-25T13:15:29.922Z,2.95
2022-09-25T13:17:58.193Z,3.17
2022-09-25T13:20:31.300Z,3.13
2022-09-25T13:23:08.538Z,5.70
2022-09-25T13:26:00.796Z,3.67
2022-09-25T13:28:38.220Z,2.80
2022-09-25T13:31:09.113Z,2.75
2022-09-25T13:33:52.491Z,3.30
2022-09-25T13:36:25.170Z,2.13
2022-09-25T13:39:14.892Z,4.07
2022-09-25T13:41:55.368Z,4.55
2022-09-25T13:44:41.058Z,7.85
2022-09-25T13:47:25.649Z,3.15
2022-09-25T13:50:12.942Z,3.35
2022-09-25T13:52:39.597Z,1.90
2022-09-25T13:55:17.108Z,3.53
2022-09-25T13:58:01.818Z,4.82
2022-09-25T14:00:37.569Z,5.25
2022-09-25T14:03:05.465Z,3.33
2022-09-25T14:05:35.968Z,3.75
2022-09-25T14:08:13.945Z,4.43
2022-09-25T14:10:46.895Z,3.78
2022-09-25T14:13:16.570Z,3.67
2022-09-25T14:15:46.704Z,4.15
2022-09-25T14:18:41.914Z,4.78
2022-09-25T14:21:13.343Z,3.70
2022-09-25T14:23:56.710Z,4.25
2022-09-25T14:26:28.045Z,3.45
2022-09-25T14:28:59.589Z,4.95
2022-09-25T14:31:26.815Z,4.57
2022-09-25T14:34:20.201Z,8.55
2022-09-25T14:37:00.287Z,7.20
2022-09-25T14:39:39.135Z,2.53
2022-09-25T14:42:31.294Z,4.63
2022-09-25T14:45:31.033Z,2.95
2022-09-25T14:48:05.040Z,3.72
2022-09-25T14:50:44.680Z,2.97
2022-09-25T14:53:15.643Z,9.95
2022-09-25T14:55:46.475Z,3.50
2022-09-25T14:58:18.614Z,3.63
2022-09-25T15:00:52.896Z,4.28
2022-09-25T15:03:25.037Z,4.00
2022-09-25T15:05:51.518Z,3.70
2022-09-25T15:08:35.811Z,5.05
2022-09-25T15:11:25.657Z,5.82
2022-09-25T15:13:52.134Z,6.05
2022-09-25T15:16:44.519Z,6.75
2022-09-25T15:19:20.514Z,3.97
2022-09-25T15:21:47.519Z,9.32
2022-09-25T15:24:24.027Z,5.70
2022-09-25T15:27:03.597Z,8.43
2022-09-25T15:29:36.594Z,4.35
2022-09-25T15:32:05.105Z,5.80
2022-09-25T15:34:32.575Z,5.68
2022-09-25T15:37:32.696Z,5.35
2022-09-25T15:40:17.873Z,4.43
2022-09-25T15:42:48.351Z,4.30
2022-09-25T15:45:36.513Z,7.85
2022-09-25T15:48:33.779Z,5.90
2022-09-25T15:51:03.025Z,5.75
2022-09-25T15:53:44.009Z,5.18
2022-09-25T15:56:39.305Z,6.18
2022-09-25T15:59:18.359Z,4.68
2022-09-25T16:02:03.631Z,13.85
2022-09-25T16:04:49.314Z,5.18
2022-09-25T16:07:25.052Z,6.07
2022-09-25T16:09:53.839Z,5.68
2022-09-25T16:12:34.670Z,6.45
2022-09-25T16:15:26.270Z,6.47
2022-09-25T16:18:04.354Z,6.82
2022-09-25T16:20:41.799Z,3.92
2022-09-25T16:23:28.870Z,5.68
2022-09-25T16:25:58.739Z,4.25
2022-09-25T16:28:30.332Z,6.28
2022-09-25T16:31:00.975Z,7.57
2022-09-25T16:33:39.900Z,6.88
2022-09-25T16:36:17.715Z,6.72
2022-09-25T16:39:09.963Z,6.57
2022-09-25T16:41:55.682Z,7.00
2022-09-25T16:46:56.376Z,5.50
2022-09-25T16:49:37.130Z,5.78
2022-09-25T16:52:20.656Z,4.80
2022-09-25T16:55:00.980Z,5.80
2022-09-25T16:57:41.299Z,12.77
2022-09-25T17:00:33.375Z,5.82
2022-09-25T17:03:00.470Z,6.18
2022-09-25T17:05:45.634Z,6.10
2022-09-25T17:08:32.419Z,6.30
2022-09-25T17:11:22.501Z,29.92
2022-09-25T17:14:23.077Z,7.50
2022-09-25T17:17:14.800Z,6.68
2022-09-25T17:20:01.821Z,5.38
2022-09-25T17:22:49.628Z,6.50
2022-09-25T17:25:48.177Z,5.25
2022-09-25T17:28:35.084Z,7.68
2022-09-25T17:31:22.278Z,6.72
2022-09-25T17:34:16.383Z,6.18
2022-09-25T17:37:03.211Z,6.72
2022-09-25T17:39:50.006Z,6.68
2022-09-25T17:42:39.952Z,4.82
2022-09-25T17:45:39.015Z,5.82
2022-09-25T17:48:30.958Z,6.10
2022-09-25T17:51:24.992Z,8.40
2022-09-25T17:54:13.304Z,5.80
2022-09-25T17:57:00.123Z,4.18
2022-09-25T17:59:49.392Z,6.05
2022-09-25T18:02:36.239Z,5.55
2022-09-25T18:05:24.118Z,4.32
2022-09-25T18:08:12.167Z,5.13
2022-09-25T18:10:58.975Z,5.85
2022-09-25T18:13:46.439Z,5.75
2022-09-25T18:16:33.326Z,3.72
2022-09-25T18:19:39.013Z,6.25
2022-09-25T18:22:28.058Z,5.80
2022-09-25T18:25:15.912Z,6.43
2022-09-25T18:28:03.396Z,4.30
2022-09-25T18:30:51.276Z,6.45
2022-09-25T18:33:38.080Z,6.07
2022-09-25T18:36:25.211Z,5.38
2022-09-25T18:39:14.966Z,5.57
2022-09-25T18:42:08.241Z,3.97
2022-09-25T18:44:55.501Z,3.75
2022-09-25T18:49:07.497Z,4.55
2022-09-25T18:51:55.929Z,6.43
2022-09-25T18:54:43.108Z,5.38
2022-09-25T18:57:29.924Z,4.18
2022-09-25T19:00:18.105Z,5.15
2022-09-25T19:03:05.153Z,3.25
2022-09-25T19:05:57.164Z,4.63
2022-09-25T19:08:53.660Z,6.07
2022-09-25T19:11:40.457Z,4.95
2022-09-25T19:14:29.602Z,3.47
2022-09-25T19:17:18.012Z,3.65
2022-09-25T19:20:06.071Z,5.40
2022-09-25T19:22:55.473Z,4.60
2022-09-25T19:25:52.261Z,4.38
2022-09-25T19:28:40.447Z,5.35
2022-09-25T19:31:28.480Z,4.35
2022-09-25T19:34:15.341Z,4.40
2022-09-25T19:37:02.556Z,2.90
2022-09-25T19:40:10.172Z,3.70
2022-09-25T19:43:01.015Z,3.13
2022-09-25T19:45:52.143Z,5.80
2022-09-25T19:48:39.015Z,3.55
2022-09-25T19:51:26.980Z,5.57
2022-09-25T19:54:15.144Z,4.07
2022-09-25T19:57:02.006Z,2.47
2022-09-25T19:59:50.839Z,6.60
2022-09-25T20:02:37.660Z,3.30
2022-09-25T20:05:24.669Z,3.97
2022-09-25T20:08:13.870Z,2.28
2022-09-25T20:11:09.630Z,6.55
2022-09-25T20:13:57.374Z,3.97
2022-09-25T20:16:44.970Z,2.63
2022-09-25T20:19:31.750Z,7.57
2022-09-25T20:22:18.535Z,3.85
2022-09-25T20:25:05.740Z,3.35
2022-09-25T20:27:52.712Z,5.57
2022-09-25T20:30:39.664Z,2.67
2022-09-25T20:33:34.435Z,4.68
2022-09-25T20:36:22.135Z,3.35
2022-09-25T20:39:08.931Z,3.65
2022-09-25T20:41:56.105Z,2.78
2022-09-25T20:44:43.573Z,3.70
2022-09-25T20:47:33.549Z,3.05
2022-09-25T20:50:21.262Z,3.50
2022-09-25T20:53:08.086Z,3.63
2022-09-25T20:55:55.083Z,2.13
2022-09-25T20:58:43.892Z,2.80
2022-09-25T21:01:34.707Z,3.67
2022-09-25T21:04:21.686Z,3.92
2022-09-25T21:07:10.951Z,3.03
2022-09-25T21:10:01.210Z,3.00
2022-09-25T21:12:47.965Z,2.03
2022-09-25T21:15:35.338Z,2.65
2022-09-25T21:18:25.021Z,3.22
2022-09-25T21:21:14.652Z,8.90
2022-09-25T21:24:02.567Z,7.25
2022-09-25T21:26:52.328Z,4.00
2022-09-25T21:29:39.127Z,3.80
2022-09-25T21:32:25.873Z,2.85
2022-09-25T21:35:12.766Z,3.33
2022-09-25T21:37:59.520Z,3.92
2022-09-25T21:40:46.874Z,5.07
2022-09-25T21:43:35.463Z,3.17
2022-09-25T21:46:23.403Z,5.00
2022-09-25T21:49:15.831Z,3.60
2022-09-25T21:52:02.601Z,5.32
2022-09-25T21:54:49.415Z,5.30
2022-09-25T21:57:36.183Z,3.20
2022-09-25T22:00:22.974Z,5.78
2022-09-25T22:03:09.833Z,5.05
2022-09-25T22:06:06.601Z,7.55
2022-09-25T22:08:59.214Z,3.47
2022-09-25T22:11:49.010Z,4.07
2022-09-25T22:14:36.490Z,4.07
2022-09-25T22:17:23.255Z,10.88
2022-09-25T22:20:11.096Z,5.53
2022-09-25T22:22:57.895Z,4.80
2022-09-25T22:25:44.735Z,3.72
2022-09-25T22:28:31.571Z,2.67
2022-09-25T22:31:24.656Z,5.53
2022-09-25T22:34:16.037Z,6.03
2022-09-25T22:37:05.391Z,5.40
2022-09-25T22:39:52.199Z,5.25
2022-09-25T22:42:38.971Z,4.57
2022-09-25T22:45:25.794Z,3.90
2022-09-25T22:48:12.613Z,3.42
2022-09-25T22:51:05.159Z,4.57
2022-09-25T22:53:53.842Z,3.60
2022-09-25T22:56:41.468Z,4.22
2022-09-25T22:59:28.366Z,11.05
2022-09-25T23:02:15.175Z,5.32
2022-09-25T23:05:06.349Z,4.07
2022-09-25T23:07:53.652Z,4.00
2022-09-25T23:11:02.989Z,3.58
2022-09-25T23:14:09.345Z,4.05
2022-09-25T23:16:57.134Z,5.78
2022-09-25T23:19:43.998Z,2.55
2022-09-25T23:22:30.820Z,2.85
2022-09-25T23:25:17.917Z,4.82
2022-09-25T23:28:04.807Z,3.55
2022-09-25T23:30:51.668Z,3.65
2022-09-25T23:33:40.018Z,5.82
2022-09-25T23:36:28.047Z,3.92
2022-09-25T23:39:18.473Z,12.15
2022-09-25T23:42:05.476Z,4.05
2022-09-25T23:44:52.688Z,3.58
2022-09-25T23:47:41.847Z,4.53
2022-09-25T23:50:28.653Z,3.13
2022-09-25T23:53:15.535Z,3.50
2022-09-25T23:56:10.066Z,3.55
2022-09-25T23:58:58.391Z,10.45
